Terminal Aerodrome Forecast
Issued by NWS

Home | Current Version | Previous Version | Text Only | Print | Product List | Glossary On
Versions: 1 2 3 4 5 6 7 8 9 10 11 12
000
FTUS45 KGJT 260520
TAFTEX
TAF
KTEX 260520Z 2606/2706 VRB03KT P6SM SCT060 SCT100
     FM260800 15006KT P6SM VCSH SCT060 BKN100
     FM261800 21010G17KT P6SM SCT080 SCT250
     FM270100 17006KT P6SM SCT080 BKN200=

USA.gov is the U.S. government's official web portal to all federal, state and local government web resources and services.